Time;durP1;ratioP1;P1;durP2;ratioP2;P2;SDS_P1;SDS_P2;PMS_P1;PMS_P2;Temp;Humidity;BMP_temperature;BMP_pressure;BME280_temperature;BME280_humidity;BME280_pressure;Samples;Min_cycle;Max_cycle;Signal;HPM_P1;HPM_P2
2022/04/06 00:01:39;;;;;;;43.72;36.45;;;20.70;54.20;;;;;;4953383;28;20027;-72
2022/04/06 00:04:05;;;;;;;43.53;35.03;;;20.70;54.20;;;;;;4953269;28;20428;-72
2022/04/06 00:06:31;;;;;;;42.45;35.20;;;20.70;54.40;;;;;;4936488;29;20035;-72
2022/04/06 00:08:57;;;;;;;42.83;34.65;;;20.70;54.10;;;;;;4953082;28;20030;-72
2022/04/06 00:11:23;;;;;;;43.83;35.45;;;20.70;54.00;;;;;;4953360;28;20400;-72
2022/04/06 00:13:49;;;;;;;44.33;35.10;;;20.70;54.00;;;;;;4951938;29;20034;-72
2022/04/06 00:16:15;;;;;;;44.00;33.95;;;20.70;54.20;;;;;;4953011;28;20036;-72
2022/04/06 00:18:42;;;;;;;43.67;34.75;;;20.70;54.30;;;;;;4953215;28;20033;-72
2022/04/06 00:21:07;;;;;;;43.38;34.67;;;20.70;54.10;;;;;;4952317;29;20035;-72
2022/04/06 00:23:33;;;;;;;44.33;35.30;;;20.70;54.20;;;;;;4953215;28;20455;-72
2022/04/06 00:25:59;;;;;;;42.03;33.80;;;20.70;54.20;;;;;;4968111;28;20118;-72
2022/04/06 00:28:25;;;;;;;40.65;32.95;;;20.70;54.00;;;;;;4951637;29;20643;-73
2022/04/06 00:30:51;;;;;;;41.22;33.35;;;20.70;54.20;;;;;;4953126;28;20063;-72
2022/04/06 00:33:17;;;;;;;41.40;32.67;;;20.70;53.90;;;;;;4955928;28;20094;-73
2022/04/06 00:35:42;;;;;;;40.78;33.25;;;20.70;54.70;;;;;;4957586;28;20032;-73
2022/04/06 00:38:09;;;;;;;41.17;33.50;;;20.70;53.70;;;;;;4956729;28;20488;-73
2022/04/06 00:40:35;;;;;;;40.42;33.00;;;20.70;54.20;;;;;;4971840;28;20080;-73
2022/04/06 00:43:10;;;;;;;41.58;32.33;;;20.80;53.80;;;;;;4956985;28;20399;-73
2022/04/06 00:45:38;;;;;;;40.97;31.98;;;20.70;53.90;;;;;;4956569;28;20067;-72
2022/04/06 00:48:04;;;;;;;40.92;32.08;;;20.70;54.20;;;;;;4956570;28;20507;-73
2022/04/06 00:50:31;;;;;;;39.17;31.70;;;20.70;54.00;;;;;;4955709;28;20038;-72
2022/04/06 00:52:57;;;;;;;39.47;31.55;;;20.70;53.80;;;;;;4956810;28;20027;-73
2022/04/06 00:55:33;;;;;;;39.78;31.92;;;20.70;54.20;;;;;;4955290;29;20396;-72
2022/04/06 00:57:58;;;;;;;39.47;31.08;;;20.70;54.00;;;;;;4971150;28;20042;-73
2022/04/06 01:00:25;;;;;;;37.63;30.52;;;20.70;53.90;;;;;;4955522;29;20031;-72
2022/04/06 01:02:51;;;;;;;37.05;31.25;;;20.70;53.90;;;;;;4956662;28;20074;-73
2022/04/06 01:05:17;;;;;;;37.75;30.85;;;20.70;53.90;;;;;;4955160;28;20113;-73
2022/04/06 01:07:48;;;;;;;35.85;29.73;;;20.70;54.00;;;;;;4955142;28;20034;-72
2022/04/06 01:10:14;;;;;;;36.72;29.75;;;20.70;54.20;;;;;;4956427;28;20114;-73
2022/04/06 01:12:40;;;;;;;37.35;29.60;;;20.70;53.90;;;;;;4956312;28;20154;-72
2022/04/06 01:15:07;;;;;;;38.60;30.20;;;20.70;53.90;;;;;;4956230;28;20027;-72
2022/04/06 01:17:35;;;;;;;45.60;40.97;;;20.70;53.80;;;;;;4954934;29;20031;-73
2022/04/06 01:20:03;;;;;;;34.45;28.00;;;20.70;54.70;;;;;;4955300;28;20031;-73
2022/04/06 01:22:28;;;;;;;36.05;29.33;;;20.70;53.70;;;;;;4956500;28;20030;-73
2022/04/06 01:24:54;;;;;;;37.00;29.85;;;20.70;53.80;;;;;;4970743;28;20027;-72
2022/04/06 01:27:20;;;;;;;36.85;29.55;;;20.70;53.80;;;;;;4954633;29;20062;-73
2022/04/06 01:29:47;;;;;;;36.22;29.30;;;20.70;53.80;;;;;;4955071;29;20491;-73
2022/04/06 01:32:18;;;;;;;36.35;28.73;;;20.70;53.80;;;;;;4956103;28;20460;-72
2022/04/06 01:34:44;;;;;;;34.22;28.55;;;20.70;53.80;;;;;;4955927;29;20038;-72
2022/04/06 01:37:12;;;;;;;35.25;27.73;;;20.70;53.90;;;;;;4938885;29;20395;-72
2022/04/06 01:39:40;;;;;;;35.22;28.05;;;20.70;53.70;;;;;;4970609;28;20031;-72
2022/04/06 01:42:08;;;;;;;34.90;27.95;;;20.70;53.70;;;;;;4956055;28;20403;-72
2022/04/06 01:44:34;;;;;;;33.85;28.90;;;20.70;53.70;;;;;;4953649;28;20315;-72
2022/04/06 01:47:02;;;;;;;31.92;26.85;;;20.80;54.10;;;;;;4955530;28;20411;-72
2022/04/06 01:52:13;;;;;;;33.25;27.10;;;20.70;54.20;;;;;;4955613;28;20019;-72
2022/04/06 01:54:40;;;;;;;30.55;26.23;;;20.80;53.70;;;;;;4955561;28;20405;-72
2022/04/06 01:57:06;;;;;;;37.75;33.78;;;20.80;53.90;;;;;;4954299;28;20031;-72
2022/04/06 01:59:32;;;;;;;32.42;26.70;;;20.80;54.30;;;;;;4955649;28;20440;-72
2022/04/06 02:01:58;;;;;;;31.05;26.33;;;20.70;53.60;;;;;;4955601;28;20039;-72
2022/04/06 02:04:23;;;;;;;59.58;51.55;;;20.80;53.60;;;;;;4955220;28;20523;-72
2022/04/06 02:06:49;;;;;;;33.92;26.52;;;20.70;55.50;;;;;;4955477;28;20051;-72
2022/04/06 02:09:15;;;;;;;32.13;26.08;;;20.80;53.60;;;;;;4955486;28;20031;-72
2022/04/06 02:11:42;;;;;;;33.50;26.40;;;20.70;53.50;;;;;;4954285;28;20027;-72
2022/04/06 02:14:08;;;;;;;31.90;26.00;;;20.70;53.50;;;;;;4954259;28;20058;-72
2022/04/06 02:16:36;;;;;;;38.58;34.75;;;20.70;53.60;;;;;;4954063;28;20059;-72
2022/04/06 02:19:02;;;;;;;29.98;25.33;;;20.70;53.80;;;;;;4954154;28;20122;-72
2022/04/06 02:21:27;;;;;;;30.55;24.85;;;20.70;53.60;;;;;;4953910;28;20127;-72
2022/04/06 02:23:53;;;;;;;30.13;24.52;;;20.70;53.40;;;;;;4969841;28;20110;-73
2022/04/06 02:26:19;;;;;;;31.33;24.83;;;20.70;53.60;;;;;;4955161;28;20554;-72
2022/04/06 02:28:45;;;;;;;30.88;24.27;;;20.70;53.40;;;;;;4969774;28;20534;-72
2022/04/06 02:31:11;;;;;;;29.15;24.27;;;20.70;54.30;;;;;;4954969;28;20024;-72
2022/04/06 02:33:36;;;;;;;31.73;28.33;;;20.70;53.70;;;;;;4953752;29;20157;-72
2022/04/06 02:36:03;;;;;;;32.92;24.58;;;20.70;53.40;;;;;;4953640;29;20035;-72
2022/04/06 02:38:30;;;;;;;29.35;23.70;;;20.70;53.40;;;;;;4953681;28;20361;-72
2022/04/06 02:40:55;;;;;;;31.00;24.63;;;20.70;53.40;;;;;;4969685;28;20515;-72
2022/04/06 02:43:21;;;;;;;29.40;23.67;;;20.70;53.30;;;;;;4970058;28;20031;-72
2022/04/06 02:45:47;;;;;;;29.30;23.15;;;20.70;53.30;;;;;;4969587;28;20428;-72
2022/04/06 02:48:14;;;;;;;29.63;23.73;;;20.70;53.50;;;;;;4969468;28;20090;-72
2022/04/06 02:50:40;;;;;;;29.27;24.00;;;20.70;53.30;;;;;;4969444;28;20034;-72
2022/04/06 02:53:05;;;;;;;28.08;22.35;;;20.70;53.50;;;;;;4969529;28;20035;-72
2022/04/06 02:55:31;;;;;;;30.27;25.00;;;20.70;54.10;;;;;;4954209;28;20031;-72
2022/04/06 02:57:57;;;;;;;28.98;23.50;;;20.70;54.20;;;;;;4954354;28;20429;-72
2022/04/06 03:00:22;;;;;;;27.70;22.38;;;20.80;53.30;;;;;;4953237;28;20035;-72
2022/04/06 03:02:49;;;;;;;27.30;22.13;;;20.80;53.40;;;;;;4937268;29;20035;-72
2022/04/06 03:05:15;;;;;;;27.50;22.40;;;20.70;53.80;;;;;;4968991;28;20106;-72
2022/04/06 03:07:41;;;;;;;29.08;24.23;;;20.80;53.40;;;;;;4952986;29;20114;-72
2022/04/06 03:10:08;;;;;;;26.55;21.58;;;20.80;54.40;;;;;;4954236;28;20035;-72
2022/04/06 03:12:34;;;;;;;28.95;22.17;;;20.80;53.60;;;;;;4954376;28;20023;-72
2022/04/06 03:15:00;;;;;;;27.83;21.65;;;20.80;54.10;;;;;;4952965;29;20122;-72
2022/04/06 03:17:26;;;;;;;27.75;22.20;;;20.80;54.20;;;;;;4952620;29;20567;-72
2022/04/06 03:19:51;;;;;;;24.42;20.05;;;20.80;53.20;;;;;;4953024;28;20027;-72
2022/04/06 03:22:17;;;;;;;26.65;21.33;;;20.80;53.20;;;;;;4952807;28;20039;-72
2022/04/06 03:24:47;;;;;;;26.27;20.63;;;20.80;53.20;;;;;;4952684;28;20083;-72
2022/04/06 03:27:13;;;;;;;26.60;21.73;;;20.70;53.20;;;;;;4952477;29;20500;-72
2022/04/06 03:29:40;;;;;;;25.33;20.35;;;20.70;53.30;;;;;;4953947;28;20030;-72
2022/04/06 03:32:09;;;;;;;27.42;22.05;;;20.70;53.10;;;;;;4952573;28;20424;-72
2022/04/06 03:34:36;;;;;;;26.42;20.52;;;20.70;53.70;;;;;;4952747;29;20042;-72
2022/04/06 03:37:01;;;;;;;26.88;21.08;;;20.70;53.10;;;;;;4952266;29;20044;-72
2022/04/06 03:39:27;;;;;;;25.80;20.83;;;20.70;53.30;;;;;;4952475;29;20031;-72
2022/04/06 03:41:53;;;;;;;24.00;19.50;;;20.80;53.20;;;;;;4952752;29;20400;-72
2022/04/06 03:44:19;;;;;;;25.42;19.38;;;20.70;53.20;;;;;;4952577;28;20063;-72
2022/04/06 03:46:44;;;;;;;25.40;20.10;;;20.70;53.10;;;;;;4952472;28;20039;-72
2022/04/06 03:49:10;;;;;;;23.63;19.25;;;20.70;53.10;;;;;;4952947;28;20035;-71
2022/04/06 03:51:36;;;;;;;25.00;19.75;;;20.70;53.00;;;;;;4953909;28;20027;-72
2022/04/06 03:54:03;;;;;;;22.45;18.73;;;20.70;53.10;;;;;;4953535;28;20035;-72
2022/04/06 03:56:29;;;;;;;24.65;19.73;;;20.80;53.10;;;;;;4968364;28;20031;-72
2022/04/06 03:58:54;;;;;;;25.50;19.70;;;20.80;54.90;;;;;;4936301;29;20050;-72
2022/04/06 04:01:20;;;;;;;24.67;19.52;;;20.70;53.00;;;;;;4952247;28;20035;-72
2022/04/06 04:03:46;;;;;;;26.77;20.50;;;20.80;53.10;;;;;;4953387;28;20035;-72
2022/04/06 04:06:12;;;;;;;23.60;18.60;;;20.70;53.00;;;;;;4953149;28;20050;-72
2022/04/06 04:08:37;;;;;;;24.33;19.08;;;20.80;53.20;;;;;;4952728;28;20036;-72
2022/04/06 04:11:03;;;;;;;23.83;19.02;;;20.80;52.80;;;;;;4953339;28;20055;-72
2022/04/06 04:13:29;;;;;;;31.20;28.08;;;20.80;53.70;;;;;;4952383;29;20040;-72
2022/04/06 04:15:55;;;;;;;29.55;26.52;;;20.80;53.60;;;;;;4952874;28;20133;-72
2022/04/06 04:18:21;;;;;;;22.45;17.58;;;20.80;53.60;;;;;;4953005;28;20031;-72
2022/04/06 04:20:46;;;;;;;24.08;19.42;;;20.80;53.20;;;;;;4968119;28;20039;-72
2022/04/06 04:23:12;;;;;;;23.20;18.00;;;20.80;53.40;;;;;;4968002;28;20063;-72
2022/04/06 04:25:38;;;;;;;22.05;17.83;;;20.80;53.40;;;;;;4975076;23;20042;-75
2022/04/06 04:28:04;;;;;;;22.75;17.48;;;20.80;53.10;;;;;;4970408;28;20042;-75
2022/04/06 04:30:30;;;;;;;22.00;18.05;;;20.80;53.00;;;;;;4971893;28;20102;-75
2022/04/06 04:32:55;;;;;;;22.38;17.25;;;20.80;53.50;;;;;;4971460;28;20369;-74
2022/04/06 04:35:21;;;;;;;23.05;18.45;;;20.80;52.90;;;;;;4972125;28;20035;-74
2022/04/06 04:37:47;;;;;;;21.25;17.05;;;20.80;53.20;;;;;;4971573;28;20109;-74
2022/04/06 04:40:16;;;;;;;22.15;19.30;;;20.80;52.80;;;;;;4971061;28;20332;-74
2022/04/06 04:42:42;;;;;;;21.48;16.98;;;20.80;52.80;;;;;;4971046;28;20495;-74
2022/04/06 04:45:11;;;;;;;22.27;17.63;;;20.80;53.00;;;;;;4972036;28;20057;-74
2022/04/06 04:47:38;;;;;;;22.00;17.50;;;20.80;52.80;;;;;;4971899;28;20023;-74
2022/04/06 04:50:05;;;;;;;21.30;16.90;;;20.80;52.90;;;;;;4972249;28;20031;-73
2022/04/06 04:52:31;;;;;;;22.63;17.02;;;20.80;52.60;;;;;;4972257;28;20055;-73
2022/04/06 04:54:57;;;;;;;22.15;17.10;;;20.80;52.60;;;;;;4972104;28;20085;-73
2022/04/06 04:57:22;;;;;;;20.58;15.98;;;20.80;52.70;;;;;;4971901;28;20031;-74
2022/04/06 04:59:52;;;;;;;22.45;16.75;;;20.80;52.70;;;;;;4972200;28;20131;-74
2022/04/06 05:02:18;;;;;;;20.58;16.33;;;20.80;52.90;;;;;;4986579;28;20431;-74
2022/04/06 05:04:44;;;;;;;26.35;23.65;;;20.80;53.00;;;;;;4972030;28;20502;-74
2022/04/06 05:07:10;;;;;;;21.15;18.02;;;20.80;53.20;;;;;;4971726;28;20022;-75
2022/04/06 05:09:36;;;;;;;20.95;16.73;;;20.80;53.20;;;;;;4971195;28;20038;-73
2022/04/06 05:12:02;;;;;;;19.98;15.57;;;20.80;53.10;;;;;;4971979;28;20042;-73
2022/04/06 05:14:27;;;;;;;21.25;18.42;;;20.80;52.70;;;;;;4972104;28;20035;-73
2022/04/06 05:16:53;;;;;;;20.02;17.45;;;20.80;53.30;;;;;;4971397;28;20033;-73
2022/04/06 05:19:19;;;;;;;19.55;15.88;;;20.80;53.30;;;;;;4973664;28;20066;-73
2022/04/06 05:21:45;;;;;;;21.58;16.05;;;20.90;53.20;;;;;;4974407;28;20081;-73
2022/04/06 05:24:11;;;;;;;20.13;15.88;;;20.80;53.00;;;;;;4974163;28;20122;-73
2022/04/06 05:26:36;;;;;;;18.95;14.95;;;20.80;53.00;;;;;;4975276;28;20027;-73
2022/04/06 05:29:02;;;;;;;21.60;18.25;;;20.80;53.00;;;;;;4975451;28;20027;-74
2022/04/06 05:31:29;;;;;;;126.70;114.25;;;20.90;52.80;;;;;;4975314;28;20030;-73
2022/04/06 05:33:54;;;;;;;18.60;14.65;;;20.80;53.10;;;;;;4974514;28;20372;-73
2022/04/06 05:36:20;;;;;;;20.13;15.57;;;20.90;53.10;;;;;;4973813;28;20078;-73
2022/04/06 05:38:46;;;;;;;21.73;16.35;;;20.90;52.60;;;;;;4975030;28;20483;-74
2022/04/06 05:41:12;;;;;;;19.75;14.63;;;20.80;52.90;;;;;;4973787;28;20468;-74
2022/04/06 05:43:37;;;;;;;21.10;16.58;;;20.90;53.00;;;;;;4974108;28;20053;-73
2022/04/06 05:46:03;;;;;;;23.05;20.15;;;20.90;53.00;;;;;;4974959;28;20031;-73
2022/04/06 05:48:29;;;;;;;19.08;15.00;;;20.90;52.80;;;;;;4973742;28;20027;-73
2022/04/06 05:50:55;;;;;;;19.55;15.07;;;20.90;52.80;;;;;;4974983;28;20447;-74
2022/04/06 05:53:20;;;;;;;19.48;14.68;;;20.90;52.80;;;;;;4975107;28;20125;-74
2022/04/06 05:55:47;;;;;;;20.35;15.88;;;20.80;52.70;;;;;;4974781;28;20038;-73
2022/04/06 05:58:14;;;;;;;20.63;16.92;;;20.90;52.90;;;;;;4973405;28;20030;-74
2022/04/06 06:00:40;;;;;;;39.60;35.38;;;20.90;53.00;;;;;;4974919;28;20031;-74
2022/04/06 06:03:06;;;;;;;19.77;15.40;;;20.90;52.90;;;;;;4973507;28;20031;-73
2022/04/06 06:05:31;;;;;;;18.88;14.70;;;20.90;52.70;;;;;;4989645;28;20395;-73
2022/04/06 06:07:57;;;;;;;22.55;20.27;;;20.90;52.80;;;;;;4974325;28;20406;-73
2022/04/06 06:10:23;;;;;;;27.48;24.92;;;20.90;52.70;;;;;;4974288;28;20027;-73
2022/04/06 06:12:49;;;;;;;18.55;15.50;;;20.90;52.70;;;;;;4973448;28;20493;-73
2022/04/06 06:15:15;;;;;;;20.40;18.20;;;20.90;52.80;;;;;;4974609;28;20042;-73
2022/04/06 06:17:41;;;;;;;19.45;17.33;;;20.90;52.70;;;;;;4974103;28;20035;-73
2022/04/06 06:20:07;;;;;;;18.25;13.70;;;20.90;52.70;;;;;;4974657;28;20093;-73
2022/04/06 06:22:34;;;;;;;20.77;16.77;;;20.90;52.60;;;;;;4974379;28;20031;-73
2022/04/06 06:25:00;;;;;;;17.98;13.40;;;20.90;52.50;;;;;;4989339;28;20118;-73
2022/04/06 06:27:26;;;;;;;18.33;14.95;;;20.80;52.50;;;;;;4973023;28;20038;-74
2022/04/06 06:29:52;;;;;;;17.58;12.90;;;20.90;52.60;;;;;;4972797;28;20046;-74
2022/04/06 06:32:17;;;;;;;16.77;13.45;;;20.90;52.60;;;;;;4989187;28;20104;-73
2022/04/06 06:34:43;;;;;;;18.50;14.30;;;20.90;52.60;;;;;;4973284;28;20034;-74
2022/04/06 06:37:10;;;;;;;18.42;16.15;;;20.90;52.60;;;;;;4973835;28;20358;-73
2022/04/06 06:39:37;;;;;;;34.20;31.33;;;20.90;52.60;;;;;;4972913;28;20037;-73
2022/04/06 06:42:04;;;;;;;19.30;13.63;;;20.90;52.50;;;;;;4988958;28;20030;-73
2022/04/06 06:44:30;;;;;;;18.63;15.27;;;20.90;52.50;;;;;;4972894;28;20034;-73
2022/04/06 06:46:56;;;;;;;75.50;66.28;;;21.00;52.60;;;;;;4973878;28;20038;-73
2022/04/06 06:49:21;;;;;;;20.42;16.60;;;20.90;52.60;;;;;;4973993;28;20034;-74
2022/04/06 06:51:47;;;;;;;21.33;18.80;;;20.90;52.50;;;;;;4974257;28;20033;-73
2022/04/06 06:54:13;;;;;;;18.25;14.50;;;20.90;52.40;;;;;;4988713;28;20023;-73
2022/04/06 06:56:38;;;;;;;34.53;31.60;;;20.90;52.50;;;;;;4956703;28;20023;-74
2022/04/06 06:59:04;;;;;;;17.80;13.38;;;20.90;53.00;;;;;;4988905;28;20027;-73
2022/04/06 07:01:29;;;;;;;19.23;15.30;;;20.90;52.40;;;;;;4973896;28;20026;-73
2022/04/06 07:03:55;;;;;;;16.95;13.52;;;20.90;52.40;;;;;;4973586;28;20392;-72
2022/04/06 07:06:21;;;;;;;17.33;12.95;;;20.90;52.40;;;;;;4973332;28;20038;-75
2022/04/06 07:08:47;;;;;;;37.28;34.22;;;20.90;52.10;;;;;;4972857;28;20030;-74
2022/04/06 07:11:12;;;;;;;20.50;18.35;;;20.90;52.40;;;;;;4973894;28;20018;-74
2022/04/06 07:13:38;;;;;;;18.15;12.90;;;20.90;52.40;;;;;;4973540;28;20062;-74
2022/04/06 07:16:07;;;;;;;16.58;12.20;;;20.90;52.30;;;;;;4973444;28;20046;-74
2022/04/06 07:18:33;;;;;;;47.65;44.05;;;20.90;52.30;;;;;;4972568;28;20455;-74
2022/04/06 07:21:00;;;;;;;15.05;12.05;;;20.90;52.30;;;;;;4973448;28;20034;-74
2022/04/06 07:23:26;;;;;;;22.15;20.00;;;20.90;52.30;;;;;;4973230;28;20069;-75
2022/04/06 07:25:51;;;;;;;16.48;12.15;;;20.90;52.30;;;;;;4973073;28;20054;-74
2022/04/06 07:28:17;;;;;;;16.48;11.73;;;20.90;52.30;;;;;;4972748;28;20489;-75
2022/04/06 07:30:43;;;;;;;16.52;12.25;;;20.90;52.30;;;;;;4973283;28;20030;-74
2022/04/06 07:33:09;;;;;;;15.60;11.75;;;20.90;52.20;;;;;;4956018;28;20066;-75
2022/04/06 07:35:37;;;;;;;17.75;13.93;;;20.90;52.20;;;;;;4973339;28;20027;-75
2022/04/06 07:38:02;;;;;;;17.00;11.82;;;20.90;52.30;;;;;;4972510;28;20077;-75
2022/04/06 07:40:28;;;;;;;17.27;12.45;;;20.90;52.20;;;;;;4973216;28;20035;-75
2022/04/06 07:42:54;;;;;;;81.93;73.40;;;21.00;52.30;;;;;;4972152;28;20023;-76
2022/04/06 07:45:21;;;;;;;17.13;14.05;;;21.00;52.20;;;;;;4971712;28;20081;-76
2022/04/06 07:47:48;;;;;;;16.45;12.18;;;20.90;52.20;;;;;;4971227;28;20101;-75
2022/04/06 07:50:16;;;;;;;99.40;89.50;;;21.00;52.20;;;;;;4971748;28;20023;-75
2022/04/06 07:52:43;;;;;;;15.55;11.45;;;21.00;52.20;;;;;;4972672;28;20027;-75
2022/04/06 07:55:10;;;;;;;21.15;18.98;;;21.00;52.10;;;;;;4973159;28;20031;-75
2022/04/06 07:57:36;;;;;;;17.02;12.00;;;21.00;52.20;;;;;;4971536;28;20382;-75
2022/04/06 08:00:12;;;;;;;15.93;11.70;;;21.00;52.10;;;;;;4971549;28;20031;-75
2022/04/06 08:02:38;;;;;;;27.70;25.27;;;21.00;52.00;;;;;;4971524;28;20110;-74
2022/04/06 08:05:04;;;;;;;17.30;12.15;;;21.00;52.10;;;;;;4972351;28;20078;-74
2022/04/06 08:07:31;;;;;;;17.00;13.48;;;21.00;52.00;;;;;;4987431;28;20023;-74
2022/04/06 08:09:57;;;;;;;35.03;32.17;;;21.00;52.10;;;;;;4971469;28;20089;-74
2022/04/06 08:12:22;;;;;;;16.42;14.13;;;21.00;52.10;;;;;;4971629;28;20027;-74
2022/04/06 08:14:50;;;;;;;24.75;22.40;;;21.00;52.00;;;;;;4972624;28;20101;-74
2022/04/06 08:17:16;;;;;;;15.57;11.73;;;21.00;52.00;;;;;;4972236;28;20038;-74
2022/04/06 08:19:42;;;;;;;17.75;12.55;;;21.00;52.00;;;;;;4971425;28;20047;-74
2022/04/06 08:22:07;;;;;;;18.70;16.70;;;21.00;52.00;;;;;;4971362;28;20439;-74
2022/04/06 08:24:33;;;;;;;27.63;25.25;;;21.00;52.00;;;;;;4972324;28;20030;-74
2022/04/06 08:26:59;;;;;;;16.02;13.30;;;21.00;52.00;;;;;;4972419;28;20501;-74
2022/04/06 08:29:26;;;;;;;42.45;39.33;;;21.00;52.00;;;;;;4972415;28;20031;-74
2022/04/06 08:31:52;;;;;;;22.83;20.58;;;21.00;52.00;;;;;;4971830;28;20070;-74
2022/04/06 08:34:18;;;;;;;26.58;24.23;;;21.00;52.00;;;;;;4970735;28;20050;-74
2022/04/06 08:36:45;;;;;;;22.48;20.27;;;21.00;52.00;;;;;;4972270;28;20019;-74
2022/04/06 08:39:11;;;;;;;16.10;10.32;;;21.00;52.00;;;;;;4971336;28;20387;-74
2022/04/06 08:41:37;;;;;;;23.08;20.98;;;21.00;52.00;;;;;;4972391;28;20023;-74
2022/04/06 08:44:03;;;;;;;26.25;23.90;;;21.00;52.00;;;;;;4971118;28;20034;-75
2022/04/06 08:46:34;;;;;;;15.35;10.73;;;21.00;51.90;;;;;;4971526;28;20396;-74
2022/04/06 08:49:01;;;;;;;17.38;15.27;;;21.00;52.00;;;;;;4971336;28;20035;-74
2022/04/06 08:51:28;;;;;;;17.27;14.30;;;21.00;51.90;;;;;;4972403;28;20066;-74
2022/04/06 08:53:54;;;;;;;62.55;58.22;;;21.00;51.90;;;;;;4956874;28;20550;-74
2022/04/06 08:56:22;;;;;;;16.52;11.00;;;21.00;51.90;;;;;;4975820;28;20034;-74
2022/04/06 08:58:47;;;;;;;22.42;20.23;;;21.00;51.90;;;;;;4975623;28;20026;-74
2022/04/06 09:01:13;;;;;;;23.80;21.63;;;21.00;51.80;;;;;;4991172;28;20030;-74
2022/04/06 09:03:39;;;;;;;30.02;27.58;;;21.00;51.90;;;;;;4975738;28;20368;-74
2022/04/06 09:06:11;;;;;;;37.88;34.85;;;21.00;51.80;;;;;;4991078;28;20058;-75
2022/04/06 09:08:41;;;;;;;15.70;12.43;;;21.00;51.80;;;;;;4975866;28;20031;-74
2022/04/06 09:11:29;;;;;;;20.70;18.60;;;21.00;51.80;;;;;;4976256;28;20481;-74
2022/04/06 09:14:00;;;;;;;68.78;64.10;;;21.00;51.80;;;;;;4958748;28;20050;-74
2022/04/06 09:16:31;;;;;;;14.77;10.25;;;21.00;51.80;;;;;;4975781;28;20368;-75
2022/04/06 09:19:13;;;;;;;56.50;52.67;;;21.00;51.80;;;;;;4980219;28;20089;-74
2022/04/06 09:21:45;;;;;;;14.68;10.27;;;21.00;51.80;;;;;;4974617;28;20483;-74
2022/04/06 09:24:19;;;;;;;15.52;12.82;;;21.00;51.70;;;;;;4975157;28;20442;-74
2022/04/06 09:27:02;;;;;;;15.43;13.27;;;21.10;51.90;;;;;;4990305;28;20082;-74
2022/04/06 09:29:28;;;;;;;15.27;13.45;;;21.00;51.70;;;;;;4975453;28;20034;-74
2022/04/06 09:31:54;;;;;;;63.30;59.00;;;21.00;51.70;;;;;;4975523;28;20492;-74
2022/04/06 09:34:21;;;;;;;15.00;12.32;;;21.00;51.70;;;;;;4974309;28;20023;-74
2022/04/06 09:36:47;;;;;;;14.95;10.95;;;21.00;51.70;;;;;;4973963;28;20023;-75
2022/04/06 09:39:13;;;;;;;40.65;37.67;;;21.00;51.60;;;;;;4975171;28;20559;-75
2022/04/06 09:42:00;;;;;;;24.20;22.15;;;21.00;51.60;;;;;;4975294;28;20035;-75
2022/04/06 09:50:17;;;;;;;31.15;28.73;;;21.00;51.60;;;;;;4975054;28;20031;-75
2022/04/06 09:52:44;;;;;;;23.88;21.75;;;21.00;51.60;;;;;;4975224;28;20109;-75
2022/04/06 09:55:15;;;;;;;30.70;28.20;;;21.00;51.50;;;;;;4974910;28;20111;-75
2022/04/06 09:57:51;;;;;;;15.13;12.98;;;21.00;51.60;;;;;;4974792;28;20502;-75
2022/04/06 10:00:25;;;;;;;16.35;14.65;;;21.00;51.60;;;;;;4989747;28;20470;-75
2022/04/06 10:03:05;;;;;;;27.05;24.88;;;21.00;51.50;;;;;;4975078;28;20038;-75
2022/04/06 10:05:33;;;;;;;28.67;26.27;;;21.00;51.50;;;;;;4973622;28;20030;-75
2022/04/06 10:08:06;;;;;;;13.10;9.40;;;21.00;51.50;;;;;;4957471;28;20030;-75
2022/04/06 10:10:33;;;;;;;12.68;9.32;;;21.00;51.50;;;;;;4973672;28;20391;-75
2022/04/06 10:13:01;;;;;;;39.80;37.03;;;21.00;51.50;;;;;;4974697;28;20058;-75
2022/04/06 10:15:27;;;;;;;44.42;38.97;;;21.00;51.50;;;;;;4971706;28;20484;-75
2022/04/06 10:18:01;;;;;;;20.67;16.25;;;21.00;53.60;;;;;;4972066;28;20034;-75
2022/04/06 10:20:50;;;;;;;64.30;59.70;;;21.00;52.60;;;;;;4974568;28;20058;-75
2022/04/06 10:23:35;;;;;;;26.88;22.15;;;21.10;53.70;;;;;;4957291;28;20608;-74
2022/04/06 10:26:59;;;;;;;;;;;;;;;;;;;;;
2022/04/06 10:30:09;;;;;;;17.40;10.70;;;21.10;53.50;;;;;;4974699;28;20033;-73
2022/04/06 10:32:40;;;;;;;16.98;9.52;;;21.20;53.90;;;;;;4974603;28;20031;-73
2022/04/06 10:35:19;;;;;;;22.48;10.73;;;21.20;55.10;;;;;;4957029;28;20373;-74
2022/04/06 10:37:58;;;;;;;22.60;9.60;;;21.20;53.40;;;;;;4972851;28;20038;-74
2022/04/06 10:40:48;;;;;;;39.67;36.28;;;21.20;55.00;;;;;;4973103;28;20041;-74
2022/04/06 10:43:36;;;;;;;16.25;8.98;;;21.20;54.30;;;;;;4966126;28;20122;-73
2022/04/06 10:46:09;;;;;;;19.20;12.15;;;21.20;54.40;;;;;;4973310;28;20562;-74
2022/04/06 10:48:55;;;;;;;23.85;10.80;;;21.20;53.50;;;;;;4972560;28;20027;-73
2022/04/06 10:51:30;;;;;;;19.52;12.02;;;21.20;53.30;;;;;;4973212;28;20042;-73
2022/04/06 10:53:56;;;;;;;16.85;11.68;;;21.20;53.40;;;;;;4972466;28;20030;-74
2022/04/06 10:56:22;;;;;;;17.08;10.82;;;21.20;53.40;;;;;;4972493;28;20170;-73
2022/04/06 10:58:57;;;;;;;16.02;8.88;;;21.20;53.50;;;;;;4972367;28;20030;-73
2022/04/06 11:01:29;;;;;;;12.05;6.90;;;21.20;53.50;;;;;;4973706;28;20037;-73
2022/04/06 11:03:59;;;;;;;18.25;11.35;;;21.20;53.40;;;;;;4972378;28;20034;-73
2022/04/06 11:06:40;;;;;;;;;;;21.20;53.50;;;;;;4972610;28;20042;-74
2022/04/06 11:12:20;;;;;;;26.48;23.08;;;21.20;53.60;;;;;;5521546;23;20043;-73
2022/04/06 11:14:47;;;;;;;79.47;52.92;;;21.20;53.60;;;;;;4949203;28;20078;-72
2022/04/06 11:17:48;;;;;;;24.40;21.98;;;21.10;53.30;;;;;;4951589;28;20047;-71
2022/04/06 11:20:39;;;;;;;19.60;12.02;;;21.20;53.30;;;;;;4951514;28;20027;-72
2022/04/06 11:23:07;;;;;;;26.52;16.83;;;21.20;53.10;;;;;;4944949;28;20041;-71
2022/04/06 11:25:33;;;;;;;26.13;10.07;;;21.20;53.30;;;;;;4973734;28;20430;-71
2022/04/06 11:28:11;;;;;;;17.70;10.40;;;21.20;53.20;;;;;;4972733;28;20114;-71
2022/04/06 11:30:42;;;;;;;20.77;18.13;;;21.20;53.10;;;;;;4954797;28;20467;-72
2022/04/06 11:33:08;;;;;;;20.17;9.88;;;21.20;53.20;;;;;;4971888;28;20019;-72
2022/04/06 11:35:38;;;;;;;18.83;8.73;;;21.20;53.20;;;;;;4971967;28;20093;-72
2022/04/06 11:38:05;;;;;;;;;;;21.20;53.20;;;;;;4973465;28;20037;-73
2022/04/06 11:40:31;;;;;;;18.08;8.75;;;21.20;53.10;;;;;;4970366;28;19937;-72
2022/04/06 11:43:00;;;;;;;17.60;11.10;;;21.10;53.20;;;;;;4982642;28;20031;-71
2022/04/06 11:45:31;;;;;;;39.65;36.22;;;21.20;53.20;;;;;;4976755;28;20042;-72
2022/04/06 11:48:02;;;;;;;24.40;8.85;;;21.10;53.10;;;;;;4972666;28;20045;-71
2022/04/06 11:50:41;;;;;;;14.32;9.70;;;21.10;53.20;;;;;;4972644;28;20023;-71
2022/04/06 11:53:09;;;;;;;14.63;10.13;;;21.20;53.20;;;;;;4972189;28;20051;-72
2022/04/06 11:55:48;;;;;;;16.88;11.98;;;21.10;53.00;;;;;;4970931;28;20782;-72
2022/04/06 11:58:37;;;;;;;26.35;23.80;;;21.10;53.10;;;;;;4972206;28;20031;-72
2022/04/06 12:01:04;;;;;;;14.38;9.00;;;21.20;52.90;;;;;;4971743;28;20031;-73
2022/04/06 12:03:37;;;;;;;151.73;136.15;;;21.10;53.20;;;;;;4954766;28;20030;-72
2022/04/06 12:06:06;;;;;;;14.63;9.50;;;21.10;53.10;;;;;;4972556;28;20483;-72
2022/04/06 12:08:34;;;;;;;16.73;9.75;;;21.20;53.10;;;;;;4972812;28;20386;-72
2022/04/06 12:11:03;;;;;;;14.93;9.25;;;21.20;53.70;;;;;;4970876;28;20030;-73
2022/04/06 12:13:35;;;;;;;44.30;16.05;;;21.30;52.90;;;;;;4972512;28;20058;-73
2022/04/06 12:16:02;;;;;;;526.63;282.90;;;21.30;53.00;;;;;;4972251;28;20232;-72
2022/04/06 12:18:29;;;;;;;507.00;330.95;;;21.30;54.80;;;;;;4972350;28;20031;-73
2022/04/06 12:20:55;;;;;;;294.60;180.90;;;21.30;55.00;;;;;;4971165;28;20039;-72
2022/04/06 12:23:24;;;;;;;304.65;186.57;;;21.30;54.60;;;;;;4954896;28;20047;-72
2022/04/06 12:25:51;;;;;;;270.48;158.43;;;21.30;54.90;;;;;;4972378;28;20058;-72
2022/04/06 12:28:23;;;;;;;240.15;134.93;;;21.30;54.60;;;;;;4971777;28;20027;-72
2022/04/06 12:31:06;;;;;;;250.07;134.23;;;21.30;54.20;;;;;;4955063;28;20105;-71
2022/04/06 12:33:33;;;;;;;234.85;134.00;;;21.30;54.00;;;;;;4972231;28;20030;-72
2022/04/06 12:36:22;;;;;;;246.15;137.55;;;21.30;54.00;;;;;;4972190;28;20078;-71
2022/04/06 12:39:11;;;;;;;233.15;132.85;;;21.30;53.90;;;;;;4972083;28;20063;-71
2022/04/06 12:42:05;;;;;;;243.95;152.73;;;21.30;53.70;;;;;;4971954;28;20046;-73
2022/04/06 12:44:33;;;;;;;339.33;304.15;;;21.30;53.60;;;;;;4972303;28;20093;-72
2022/04/06 12:47:00;;;;;;;177.85;100.22;;;21.30;53.70;;;;;;4970968;28;20030;-72